sensor_id;sensor_type;location;lat;lon;timestamp;pressure;altitude;pressure_sealevel;temperature;humidity
29169;BME280;16219;42.864;23.360;2023-06-14T00:01:20;95524.38;;;17.96;100.00
29169;BME280;16219;42.864;23.360;2023-06-14T00:03:47;95522.75;;;17.84;100.00
29169;BME280;16219;42.864;23.360;2023-06-14T00:06:16;95534.03;;;17.74;100.00
29169;BME280;16219;42.864;23.360;2023-06-14T00:08:43;95514.94;;;17.72;100.00
29169;BME280;16219;42.864;23.360;2023-06-14T00:11:10;95518.78;;;17.74;100.00
29169;BME280;16219;42.864;23.360;2023-06-14T00:13:37;95517.69;;;17.76;100.00
29169;BME280;16219;42.864;23.360;2023-06-14T00:16:04;95509.94;;;17.70;100.00
29169;BME280;16219;42.864;23.360;2023-06-14T00:18:31;95517.19;;;17.70;100.00
29169;BME280;16219;42.864;23.360;2023-06-14T00:20:58;95515.03;;;17.79;100.00
29169;BME280;16219;42.864;23.360;2023-06-14T00:23:26;95516.59;;;17.80;100.00
29169;BME280;16219;42.864;23.360;2023-06-14T00:25:53;95517.69;;;17.76;100.00
29169;BME280;16219;42.864;23.360;2023-06-14T00:28:20;95509.53;;;17.68;100.00
29169;BME280;16219;42.864;23.360;2023-06-14T00:30:47;95502.13;;;17.55;100.00
29169;BME280;16219;42.864;23.360;2023-06-14T00:33:14;95503.78;;;17.63;100.00
29169;BME280;16219;42.864;23.360;2023-06-14T00:35:42;95510.22;;;17.62;100.00
29169;BME280;16219;42.864;23.360;2023-06-14T00:38:10;95497.84;;;17.46;100.00
29169;BME280;16219;42.864;23.360;2023-06-14T00:40:41;95514.34;;;17.56;100.00
29169;BME280;16219;42.864;23.360;2023-06-14T00:43:10;95499.06;;;17.53;100.00
29169;BME280;16219;42.864;23.360;2023-06-14T00:45:37;95500.19;;;17.52;100.00
29169;BME280;16219;42.864;23.360;2023-06-14T00:48:04;95494.81;;;17.48;100.00
29169;BME280;16219;42.864;23.360;2023-06-14T00:50:32;95508.28;;;17.59;100.00
29169;BME280;16219;42.864;23.360;2023-06-14T00:53:00;95491.75;;;17.49;100.00
29169;BME280;16219;42.864;23.360;2023-06-14T00:55:27;95503.28;;;17.57;100.00
29169;BME280;16219;42.864;23.360;2023-06-14T00:57:56;95505.56;;;17.55;100.00
29169;BME280;16219;42.864;23.360;2023-06-14T01:00:23;95495.63;;;17.52;100.00
29169;BME280;16219;42.864;23.360;2023-06-14T01:02:50;95502.44;;;17.49;100.00
29169;BME280;16219;42.864;23.360;2023-06-14T01:05:17;95503.50;;;17.45;100.00
29169;BME280;16219;42.864;23.360;2023-06-14T01:07:59;95503.06;;;17.39;100.00
29169;BME280;16219;42.864;23.360;2023-06-14T01:10:35;95503.88;;;17.43;100.00
29169;BME280;16219;42.864;23.360;2023-06-14T01:13:11;95503.84;;;17.40;100.00
29169;BME280;16219;42.864;23.360;2023-06-14T01:15:43;95497.38;;;17.41;100.00
29169;BME280;16219;42.864;23.360;2023-06-14T01:18:11;95503.44;;;17.38;100.00
29169;BME280;16219;42.864;23.360;2023-06-14T01:20:43;95495.78;;;17.36;100.00
29169;BME280;16219;42.864;23.360;2023-06-14T01:23:16;95497.69;;;17.36;100.00
29169;BME280;16219;42.864;23.360;2023-06-14T01:25:43;95502.34;;;17.42;100.00
29169;BME280;16219;42.864;23.360;2023-06-14T01:28:11;95501.59;;;17.42;100.00
29169;BME280;16219;42.864;23.360;2023-06-14T01:30:41;95492.34;;;17.36;100.00
29169;BME280;16219;42.864;23.360;2023-06-14T01:33:12;95496.25;;;17.42;100.00
29169;BME280;16219;42.864;23.360;2023-06-14T01:35:43;95499.25;;;17.40;100.00
29169;BME280;16219;42.864;23.360;2023-06-14T01:38:10;95503.06;;;17.39;100.00
29169;BME280;16219;42.864;23.360;2023-06-14T01:40:39;95483.91;;;17.30;100.00
29169;BME280;16219;42.864;23.360;2023-06-14T01:43:07;95497.31;;;17.37;100.00
29169;BME280;16219;42.864;23.360;2023-06-14T01:45:36;95509.94;;;17.40;100.00
29169;BME280;16219;42.864;23.360;2023-06-14T01:48:04;95493.03;;;17.29;100.00
29169;BME280;16219;42.864;23.360;2023-06-14T01:50:31;95508.28;;;17.32;100.00
29169;BME280;16219;42.864;23.360;2023-06-14T01:52:58;95515.28;;;17.40;100.00
29169;BME280;16219;42.864;23.360;2023-06-14T01:55:25;95512.28;;;17.45;100.00
29169;BME280;16219;42.864;23.360;2023-06-14T01:57:54;95514.66;;;17.51;100.00
29169;BME280;16219;42.864;23.360;2023-06-14T02:00:21;95516.50;;;17.46;100.00
29169;BME280;16219;42.864;23.360;2023-06-14T02:02:51;95505.28;;;17.34;100.00
29169;BME280;16219;42.864;23.360;2023-06-14T02:05:18;95513.75;;;17.39;100.00
29169;BME280;16219;42.864;23.360;2023-06-14T02:07:47;95516.91;;;17.48;100.00
29169;BME280;16219;42.864;23.360;2023-06-14T02:10:17;95520.59;;;17.40;100.00
29169;BME280;16219;42.864;23.360;2023-06-14T02:12:44;95517.84;;;17.33;100.00
29169;BME280;16219;42.864;23.360;2023-06-14T02:15:13;95517.38;;;17.28;100.00
29169;BME280;16219;42.864;23.360;2023-06-14T02:17:44;95522.09;;;17.38;100.00
29169;BME280;16219;42.864;23.360;2023-06-14T02:20:13;95525.53;;;17.38;100.00
29169;BME280;16219;42.864;23.360;2023-06-14T02:22:40;95514.00;;;17.31;100.00
29169;BME280;16219;42.864;23.360;2023-06-14T02:25:08;95528.88;;;17.32;100.00
29169;BME280;16219;42.864;23.360;2023-06-14T02:27:35;95532.97;;;17.26;100.00
29169;BME280;16219;42.864;23.360;2023-06-14T02:30:04;95539.06;;;17.26;100.00
29169;BME280;16219;42.864;23.360;2023-06-14T02:32:33;95543.38;;;17.34;100.00
29169;BME280;16219;42.864;23.360;2023-06-14T02:35:01;95541.06;;;17.33;100.00
29169;BME280;16219;42.864;23.360;2023-06-14T02:37:28;95544.09;;;17.31;100.00
29169;BME280;16219;42.864;23.360;2023-06-14T02:39:55;95533.06;;;17.33;100.00
29169;BME280;16219;42.864;23.360;2023-06-14T02:42:23;95536.25;;;17.42;100.00
29169;BME280;16219;42.864;23.360;2023-06-14T02:44:50;95538.75;;;17.31;100.00
29169;BME280;16219;42.864;23.360;2023-06-14T02:47:17;95541.78;;;17.30;100.00
29169;BME280;16219;42.864;23.360;2023-06-14T02:49:45;95536.53;;;17.37;100.00
29169;BME280;16219;42.864;23.360;2023-06-14T02:52:14;95530.25;;;17.22;100.00
29169;BME280;16219;42.864;23.360;2023-06-14T02:54:41;95530.31;;;17.26;100.00
29169;BME280;16219;42.864;23.360;2023-06-14T02:57:09;95529.22;;;17.30;100.00
29169;BME280;16219;42.864;23.360;2023-06-14T02:59:37;95534.19;;;17.32;100.00
29169;BME280;16219;42.864;23.360;2023-06-14T03:02:05;95536.59;;;17.40;100.00
29169;BME280;16219;42.864;23.360;2023-06-14T03:04:33;95538.56;;;17.43;100.00
29169;BME280;16219;42.864;23.360;2023-06-14T03:07:08;95543.53;;;17.45;100.00
29169;BME280;16219;42.864;23.360;2023-06-14T03:09:38;95549.63;;;17.45;100.00
29169;BME280;16219;42.864;23.360;2023-06-14T03:12:08;95552.72;;;17.47;100.00
29169;BME280;16219;42.864;23.360;2023-06-14T03:14:37;95554.25;;;17.48;100.00
29169;BME280;16219;42.864;23.360;2023-06-14T03:17:04;95551.19;;;17.46;100.00
29169;BME280;16219;42.864;23.360;2023-06-14T03:19:34;95551.13;;;17.43;100.00
29169;BME280;16219;42.864;23.360;2023-06-14T03:22:03;95551.47;;;17.41;100.00
29169;BME280;16219;42.864;23.360;2023-06-14T03:24:33;95561.84;;;17.46;100.00
29169;BME280;16219;42.864;23.360;2023-06-14T03:27:05;95540.41;;;17.39;100.00
29169;BME280;16219;42.864;23.360;2023-06-14T03:29:33;95550.03;;;17.47;100.00
29169;BME280;16219;42.864;23.360;2023-06-14T03:32:01;95541.22;;;17.43;100.00
29169;BME280;16219;42.864;23.360;2023-06-14T03:34:40;95539.81;;;17.53;100.00
29169;BME280;16219;42.864;23.360;2023-06-14T03:37:13;95541.34;;;17.54;100.00
29169;BME280;16219;42.864;23.360;2023-06-14T03:39:41;95526.91;;;17.55;100.00
29169;BME280;16219;42.864;23.360;2023-06-14T03:42:15;95523.88;;;17.57;100.00
29169;BME280;16219;42.864;23.360;2023-06-14T03:44:43;95533.81;;;17.60;100.00
29169;BME280;16219;42.864;23.360;2023-06-14T03:47:10;95540.31;;;17.59;100.00
29169;BME280;16219;42.864;23.360;2023-06-14T03:49:37;95543.81;;;17.66;100.00
29169;BME280;16219;42.864;23.360;2023-06-14T03:52:05;95534.72;;;17.71;100.00
29169;BME280;16219;42.864;23.360;2023-06-14T03:54:35;95538.38;;;17.86;100.00
29169;BME280;16219;42.864;23.360;2023-06-14T03:57:03;95548.06;;;17.97;100.00
29169;BME280;16219;42.864;23.360;2023-06-14T03:59:31;95548.34;;;18.22;100.00
29169;BME280;16219;42.864;23.360;2023-06-14T04:01:58;95550.06;;;18.41;100.00
29169;BME280;16219;42.864;23.360;2023-06-14T04:04:25;95563.25;;;18.64;100.00
29169;BME280;16219;42.864;23.360;2023-06-14T04:06:55;95554.06;;;18.62;100.00
29169;BME280;16219;42.864;23.360;2023-06-14T04:09:24;95561.00;;;18.66;100.00
29169;BME280;16219;42.864;23.360;2023-06-14T04:11:52;95553.81;;;18.70;100.00
29169;BME280;16219;42.864;23.360;2023-06-14T04:14:22;95553.81;;;18.70;100.00
29169;BME280;16219;42.864;23.360;2023-06-14T04:16:50;95553.81;;;18.70;100.00
29169;BME280;16219;42.864;23.360;2023-06-14T04:19:19;95561.09;;;18.73;100.00
29169;BME280;16219;42.864;23.360;2023-06-14T04:21:46;95550.38;;;18.70;100.00
29169;BME280;16219;42.864;23.360;2023-06-14T04:24:15;95554.22;;;18.76;100.00
29169;BME280;16219;42.864;23.360;2023-06-14T04:26:45;95560.50;;;18.94;100.00
29169;BME280;16219;42.864;23.360;2023-06-14T04:29:15;95565.16;;;19.60;100.00
29169;BME280;16219;42.864;23.360;2023-06-14T04:31:54;95575.44;;;20.20;100.00
29169;BME280;16219;42.864;23.360;2023-06-14T04:34:25;95570.50;;;20.36;100.00
29169;BME280;16219;42.864;23.360;2023-06-14T04:36:56;95575.78;;;20.15;100.00
29169;BME280;16219;42.864;23.360;2023-06-14T04:39:34;95579.94;;;19.98;100.00
29169;BME280;16219;42.864;23.360;2023-06-14T04:42:03;95569.88;;;19.77;100.00
29169;BME280;16219;42.864;23.360;2023-06-14T04:44:30;95575.53;;;19.61;100.00
29169;BME280;16219;42.864;23.360;2023-06-14T04:47:02;95571.56;;;19.44;100.00
29169;BME280;16219;42.864;23.360;2023-06-14T04:49:30;95571.47;;;19.30;100.00
29169;BME280;16219;42.864;23.360;2023-06-14T04:51:58;95572.94;;;19.24;100.00
29169;BME280;16219;42.864;23.360;2023-06-14T04:54:32;95579.41;;;19.19;100.00
29169;BME280;16219;42.864;23.360;2023-06-14T04:57:01;95584.34;;;19.14;100.00
29169;BME280;16219;42.864;23.360;2023-06-14T04:59:29;95580.88;;;19.10;100.00
29169;BME280;16219;42.864;23.360;2023-06-14T05:01:59;95568.22;;;19.07;100.00
29169;BME280;16219;42.864;23.360;2023-06-14T05:04:28;95580.53;;;19.15;100.00
29169;BME280;16219;42.864;23.360;2023-06-14T05:06:57;95585.84;;;19.11;100.00
29169;BME280;16219;42.864;23.360;2023-06-14T05:09:25;95581.28;;;19.12;100.00
29169;BME280;16219;42.864;23.360;2023-06-14T05:11:52;95572.91;;;19.17;100.00
29169;BME280;16219;42.864;23.360;2023-06-14T05:14:20;95595.72;;;19.07;100.00
29169;BME280;16219;42.864;23.360;2023-06-14T05:16:50;95597.56;;;18.96;100.00
29169;BME280;16219;42.864;23.360;2023-06-14T05:19:17;95593.41;;;19.02;100.00
29169;BME280;16219;42.864;23.360;2023-06-14T05:21:46;95571.25;;;19.02;100.00
29169;BME280;16219;42.864;23.360;2023-06-14T05:24:13;95593.22;;;19.25;100.00
29169;BME280;16219;42.864;23.360;2023-06-14T05:26:40;95594.34;;;19.20;100.00
29169;BME280;16219;42.864;23.360;2023-06-14T05:29:07;95601.16;;;19.14;100.00
29169;BME280;16219;42.864;23.360;2023-06-14T05:31:34;95609.56;;;19.13;100.00
29169;BME280;16219;42.864;23.360;2023-06-14T05:34:01;95610.28;;;19.10;100.00
29169;BME280;16219;42.864;23.360;2023-06-14T05:36:28;95607.56;;;19.06;100.00
29169;BME280;16219;42.864;23.360;2023-06-14T05:38:56;95613.72;;;19.10;100.00
29169;BME280;16219;42.864;23.360;2023-06-14T05:41:25;95615.56;;;19.03;100.00
29169;BME280;16219;42.864;23.360;2023-06-14T05:43:53;95611.75;;;19.04;100.00
29169;BME280;16219;42.864;23.360;2023-06-14T05:46:21;95610.97;;;19.00;100.00
29169;BME280;16219;42.864;23.360;2023-06-14T05:48:51;95604.06;;;18.98;100.00
29169;BME280;16219;42.864;23.360;2023-06-14T05:51:18;95613.19;;;18.94;100.00
29169;BME280;16219;42.864;23.360;2023-06-14T05:53:45;95612.84;;;18.95;100.00
29169;BME280;16219;42.864;23.360;2023-06-14T05:56:14;95617.00;;;18.93;100.00
29169;BME280;16219;42.864;23.360;2023-06-14T05:58:43;95617.03;;;18.96;100.00
29169;BME280;16219;42.864;23.360;2023-06-14T06:01:10;95614.75;;;18.98;100.00
29169;BME280;16219;42.864;23.360;2023-06-14T06:03:38;95610.94;;;18.96;100.00
29169;BME280;16219;42.864;23.360;2023-06-14T06:06:06;95615.91;;;18.97;100.00
29169;BME280;16219;42.864;23.360;2023-06-14T06:08:33;95617.13;;;19.07;100.00
29169;BME280;16219;42.864;23.360;2023-06-14T06:11:00;95622.59;;;19.21;100.00
29169;BME280;16219;42.864;23.360;2023-06-14T06:13:29;95615.00;;;19.27;100.00
29169;BME280;16219;42.864;23.360;2023-06-14T06:15:56;95619.34;;;19.42;100.00
29169;BME280;16219;42.864;23.360;2023-06-14T06:18:23;95615.59;;;19.58;100.00
29169;BME280;16219;42.864;23.360;2023-06-14T06:20:50;95623.78;;;19.79;100.00
29169;BME280;16219;42.864;23.360;2023-06-14T06:23:17;95605.44;;;19.78;100.00
29169;BME280;16219;42.864;23.360;2023-06-14T06:25:45;95629.38;;;20.15;100.00
29169;BME280;16219;42.864;23.360;2023-06-14T06:28:12;95629.78;;;20.24;100.00
29169;BME280;16219;42.864;23.360;2023-06-14T06:30:40;95635.94;;;20.32;100.00
29169;BME280;16219;42.864;23.360;2023-06-14T06:33:08;95634.78;;;20.33;100.00
29169;BME280;16219;42.864;23.360;2023-06-14T06:35:35;95644.34;;;20.30;100.00
29169;BME280;16219;42.864;23.360;2023-06-14T06:38:02;95644.75;;;20.32;100.00
29169;BME280;16219;42.864;23.360;2023-06-14T06:40:29;95641.69;;;20.37;100.00
29169;BME280;16219;42.864;23.360;2023-06-14T06:42:56;95627.94;;;20.35;100.00
29169;BME280;16219;42.864;23.360;2023-06-14T06:45:26;95647.91;;;20.49;100.00
29169;BME280;16219;42.864;23.360;2023-06-14T06:47:55;95654.78;;;20.50;100.00
29169;BME280;16219;42.864;23.360;2023-06-14T06:50:22;95645.94;;;20.45;100.00
29169;BME280;16219;42.864;23.360;2023-06-14T06:52:50;95642.88;;;20.47;100.00
29169;BME280;16219;42.864;23.360;2023-06-14T06:55:18;95647.84;;;20.41;100.00
29169;BME280;16219;42.864;23.360;2023-06-14T06:57:45;95647.84;;;20.41;100.00
29169;BME280;16219;42.864;23.360;2023-06-14T07:00:13;95638.66;;;20.46;100.00
29169;BME280;16219;42.864;23.360;2023-06-14T07:02:40;95644.88;;;20.57;100.00
29169;BME280;16219;42.864;23.360;2023-06-14T07:05:08;95642.56;;;20.59;100.00
29169;BME280;16219;42.864;23.360;2023-06-14T07:07:36;95654.88;;;20.71;100.00
29169;BME280;16219;42.864;23.360;2023-06-14T07:10:04;95645.72;;;20.83;100.00
29169;BME280;16219;42.864;23.360;2023-06-14T07:12:31;95646.13;;;20.99;100.00
29169;BME280;16219;42.864;23.360;2023-06-14T07:14:59;95643.47;;;21.17;100.00
29169;BME280;16219;42.864;23.360;2023-06-14T07:17:29;95648.84;;;21.24;100.00
29169;BME280;16219;42.864;23.360;2023-06-14T07:19:56;95655.41;;;21.37;100.00
29169;BME280;16219;42.864;23.360;2023-06-14T07:22:25;95663.44;;;21.48;100.00
29169;BME280;16219;42.864;23.360;2023-06-14T07:24:52;95652.69;;;21.66;100.00
29169;BME280;16219;42.864;23.360;2023-06-14T07:27:19;95651.91;;;21.69;100.00
29169;BME280;16219;42.864;23.360;2023-06-14T07:29:46;95646.50;;;22.05;100.00
29169;BME280;16219;42.864;23.360;2023-06-14T07:32:13;95642.56;;;22.34;100.00
29169;BME280;16219;42.864;23.360;2023-06-14T07:34:40;95645.56;;;22.61;100.00
29169;BME280;16219;42.864;23.360;2023-06-14T07:37:07;95652.41;;;22.73;100.00
29169;BME280;16219;42.864;23.360;2023-06-14T07:39:36;95643.06;;;22.99;100.00
29169;BME280;16219;42.864;23.360;2023-06-14T07:42:03;95645.00;;;23.51;100.00
29169;BME280;16219;42.864;23.360;2023-06-14T07:44:31;95649.84;;;23.70;100.00
29169;BME280;16219;42.864;23.360;2023-06-14T07:46:58;95645.88;;;23.85;100.00
29169;BME280;16219;42.864;23.360;2023-06-14T07:49:25;95647.53;;;23.72;100.00
29169;BME280;16219;42.864;23.360;2023-06-14T07:51:53;95652.28;;;23.99;100.00
29169;BME280;16219;42.864;23.360;2023-06-14T07:54:20;95650.53;;;24.19;100.00
29169;BME280;16219;42.864;23.360;2023-06-14T07:56:52;95666.34;;;24.17;100.00
29169;BME280;16219;42.864;23.360;2023-06-14T07:59:20;95662.31;;;23.98;100.00
29169;BME280;16219;42.864;23.360;2023-06-14T08:01:47;95664.06;;;23.74;100.00
29169;BME280;16219;42.864;23.360;2023-06-14T08:04:14;95674.16;;;23.63;100.00
29169;BME280;16219;42.864;23.360;2023-06-14T08:06:41;95677.59;;;23.67;100.00
29169;BME280;16219;42.864;23.360;2023-06-14T08:09:11;95670.78;;;23.48;100.00
29169;BME280;16219;42.864;23.360;2023-06-14T08:11:39;95687.22;;;23.68;100.00
29169;BME280;16219;42.864;23.360;2023-06-14T08:14:08;95677.66;;;23.53;100.00
29169;BME280;16219;42.864;23.360;2023-06-14T08:16:35;95685.50;;;23.36;100.00
29169;BME280;16219;42.864;23.360;2023-06-14T08:19:03;95683.59;;;23.33;100.00
29169;BME280;16219;42.864;23.360;2023-06-14T08:21:30;95689.78;;;23.30;100.00
29169;BME280;16219;42.864;23.360;2023-06-14T08:23:59;95690.56;;;23.27;100.00
29169;BME280;16219;42.864;23.360;2023-06-14T08:26:26;95692.47;;;23.30;100.00
29169;BME280;16219;42.864;23.360;2023-06-14T08:28:54;95700.88;;;23.36;100.00
29169;BME280;16219;42.864;23.360;2023-06-14T08:31:23;95691.88;;;23.57;100.00
29169;BME280;16219;42.864;23.360;2023-06-14T08:33:50;95684.91;;;23.63;100.00
29169;BME280;16219;42.864;23.360;2023-06-14T08:36:17;95688.56;;;23.87;100.00
29169;BME280;16219;42.864;23.360;2023-06-14T08:38:45;95692.22;;;24.11;100.00
29169;BME280;16219;42.864;23.360;2023-06-14T08:41:12;95681.19;;;24.32;100.00
29169;BME280;16219;42.864;23.360;2023-06-14T08:43:46;95681.88;;;24.43;100.00
29169;BME280;16219;42.864;23.360;2023-06-14T08:46:14;95683.72;;;24.50;100.00
29169;BME280;16219;42.864;23.360;2023-06-14T08:48:48;95674.34;;;24.62;100.00
29169;BME280;16219;42.864;23.360;2023-06-14T08:51:18;95670.31;;;24.77;100.00
29169;BME280;16219;42.864;23.360;2023-06-14T08:53:51;95668.97;;;24.89;100.00
29169;BME280;16219;42.864;23.360;2023-06-14T08:56:19;95674.16;;;25.07;100.00
29169;BME280;16219;42.864;23.360;2023-06-14T08:58:49;95652.56;;;25.07;100.00
29169;BME280;16219;42.864;23.360;2023-06-14T09:01:16;95676.75;;;25.14;100.00
29169;BME280;16219;42.864;23.360;2023-06-14T09:03:43;95677.41;;;24.94;100.00
29169;BME280;16219;42.864;23.360;2023-06-14T09:06:12;95665.56;;;25.15;100.00
29169;BME280;16219;42.864;23.360;2023-06-14T09:08:42;95671.16;;;24.98;98.07
29169;BME280;16219;42.864;23.360;2023-06-14T09:11:11;95666.75;;;24.84;97.77
29169;BME280;16219;42.864;23.360;2023-06-14T09:13:38;95671.81;;;25.09;100.00
29169;BME280;16219;42.864;23.360;2023-06-14T09:16:05;95659.63;;;25.28;97.74
29169;BME280;16219;42.864;23.360;2023-06-14T09:18:36;95664.38;;;25.43;92.83
29169;BME280;16219;42.864;23.360;2023-06-14T09:21:05;95663.03;;;25.32;90.92
29169;BME280;16219;42.864;23.360;2023-06-14T09:23:36;95656.53;;;25.26;97.39
29169;BME280;16219;42.864;23.360;2023-06-14T09:26:08;95655.78;;;25.49;96.32
29169;BME280;16219;42.864;23.360;2023-06-14T09:28:35;95663.44;;;25.54;100.00
29169;BME280;16219;42.864;23.360;2023-06-14T09:31:02;95660.66;;;25.34;100.00
29169;BME280;16219;42.864;23.360;2023-06-14T09:33:30;95656.06;;;25.04;92.54
29169;BME280;16219;42.864;23.360;2023-06-14T09:35:59;95644.34;;;24.87;92.77
29169;BME280;16219;42.864;23.360;2023-06-14T09:38:26;95635.78;;;24.92;96.73
29169;BME280;16219;42.864;23.360;2023-06-14T09:40:58;95652.13;;;24.81;100.00
29169;BME280;16219;42.864;23.360;2023-06-14T09:43:25;95638.56;;;24.85;95.12
29169;BME280;16219;42.864;23.360;2023-06-14T09:45:54;95642.44;;;24.84;93.78
29169;BME280;16219;42.864;23.360;2023-06-14T09:48:21;95635.78;;;24.92;96.84
29169;BME280;16219;42.864;23.360;2023-06-14T09:50:50;95623.59;;;24.80;94.46
29169;BME280;16219;42.864;23.360;2023-06-14T09:53:21;95634.22;;;24.94;91.04
29169;BME280;16219;42.864;23.360;2023-06-14T09:55:49;95630.56;;;25.08;100.00
29169;BME280;16219;42.864;23.360;2023-06-14T09:58:23;95629.72;;;25.38;97.10
29169;BME280;16219;42.864;23.360;2023-06-14T10:00:52;95627.09;;;25.58;94.64
29169;BME280;16219;42.864;23.360;2023-06-14T10:03:27;95619.03;;;25.55;93.03
29169;BME280;16219;42.864;23.360;2023-06-14T10:05:56;95626.34;;;25.58;86.23
29169;BME280;16219;42.864;23.360;2023-06-14T10:08:27;95614.69;;;25.61;89.91
29169;BME280;16219;42.864;23.360;2023-06-14T10:10:59;95623.63;;;25.58;100.00
29169;BME280;16219;42.864;23.360;2023-06-14T10:13:29;95617.53;;;25.54;85.92
29169;BME280;16219;42.864;23.360;2023-06-14T10:16:07;95616.63;;;25.60;89.88
29169;BME280;16219;42.864;23.360;2023-06-14T10:18:42;95605.59;;;25.75;98.53
29169;BME280;16219;42.864;23.360;2023-06-14T10:21:18;95606.47;;;25.91;90.54
29169;BME280;16219;42.864;23.360;2023-06-14T10:23:49;95607.53;;;26.17;99.14
29169;BME280;16219;42.864;23.360;2023-06-14T10:26:19;95607.66;;;26.10;92.79
29169;BME280;16219;42.864;23.360;2023-06-14T10:29:12;95599.81;;;25.73;92.79
29169;BME280;16219;42.864;23.360;2023-06-14T10:31:56;95597.47;;;25.75;97.84
29169;BME280;16219;42.864;23.360;2023-06-14T10:34:25;95590.66;;;25.90;85.35
29169;BME280;16219;42.864;23.360;2023-06-14T10:37:03;95595.31;;;26.09;89.85
29169;BME280;16219;42.864;23.360;2023-06-14T10:39:31;95594.56;;;26.09;87.05
29169;BME280;16219;42.864;23.360;2023-06-14T10:42:01;95591.91;;;25.62;84.97
29169;BME280;16219;42.864;23.360;2023-06-14T10:44:38;95581.44;;;25.64;92.08
29169;BME280;16219;42.864;23.360;2023-06-14T10:47:11;95579.22;;;25.82;83.59
29169;BME280;16219;42.864;23.360;2023-06-14T10:49:51;95581.50;;;26.04;83.56
29169;BME280;16219;42.864;23.360;2023-06-14T10:52:22;95581.25;;;26.18;80.78
29169;BME280;16219;42.864;23.360;2023-06-14T10:55:08;95574.44;;;26.30;94.35
29169;BME280;16219;42.864;23.360;2023-06-14T10:57:42;95566.59;;;26.35;86.14
29169;BME280;16219;42.864;23.360;2023-06-14T11:00:13;95574.84;;;26.48;84.61
29169;BME280;16219;42.864;23.360;2023-06-14T11:05:51;95561.63;;;26.70;75.22
29169;BME280;16219;42.864;23.360;2023-06-14T11:08:47;95559.31;;;26.32;74.80
29169;BME280;16219;42.864;23.360;2023-06-14T11:11:21;95548.31;;;26.23;81.07
29169;BME280;16219;42.864;23.360;2023-06-14T11:13:49;95542.31;;;26.32;86.38
29169;BME280;16219;42.864;23.360;2023-06-14T11:16:19;95548.13;;;26.50;77.76
29169;BME280;16219;42.864;23.360;2023-06-14T11:18:46;95544.19;;;26.71;76.21
29169;BME280;16219;42.864;23.360;2023-06-14T11:21:18;95547.88;;;26.81;83.86
29169;BME280;16219;42.864;23.360;2023-06-14T11:23:49;95533.72;;;26.73;69.48
29169;BME280;16219;42.864;23.360;2023-06-14T11:26:24;95535.41;;;26.83;67.59
29169;BME280;16219;42.864;23.360;2023-06-14T11:28:55;95536.69;;;26.95;72.90
29169;BME280;16219;42.864;23.360;2023-06-14T11:31:24;95534.16;;;27.21;80.20
29169;BME280;16219;42.864;23.360;2023-06-14T11:33:53;95522.72;;;27.29;79.80
29169;BME280;16219;42.864;23.360;2023-06-14T11:36:22;95530.13;;;27.58;83.47
29169;BME280;16219;42.864;23.360;2023-06-14T11:38:49;95531.16;;;27.48;60.97
29169;BME280;16219;42.864;23.360;2023-06-14T11:41:17;95538.13;;;27.49;62.14
29169;BME280;16219;42.864;23.360;2023-06-14T11:43:44;95528.31;;;27.38;64.14
29169;BME280;16219;42.864;23.360;2023-06-14T11:46:14;95531.97;;;27.15;70.22
29169;BME280;16219;42.864;23.360;2023-06-14T11:48:44;95524.06;;;27.05;78.36
29169;BME280;16219;42.864;23.360;2023-06-14T11:51:11;95513.75;;;27.00;74.87
29169;BME280;16219;42.864;23.360;2023-06-14T11:53:39;95506.16;;;26.95;78.57
29169;BME280;16219;42.864;23.360;2023-06-14T11:56:06;95508.50;;;27.09;67.27
29169;BME280;16219;42.864;23.360;2023-06-14T11:58:33;95502.78;;;27.23;70.18
29169;BME280;16219;42.864;23.360;2023-06-14T12:01:03;95497.22;;;27.43;62.73
29169;BME280;16219;42.864;23.360;2023-06-14T12:03:30;95493.97;;;27.48;70.62
29169;BME280;16219;42.864;23.360;2023-06-14T12:06:07;95486.03;;;27.57;65.31
29169;BME280;16219;42.864;23.360;2023-06-14T12:08:34;95481.38;;;27.87;80.85
29169;BME280;16219;42.864;23.360;2023-06-14T12:11:11;95494.84;;;28.16;74.58
29169;BME280;16219;42.864;23.360;2023-06-14T12:13:39;95484.53;;;28.24;59.85
29169;BME280;16219;42.864;23.360;2023-06-14T12:16:07;95487.03;;;28.18;57.97
29169;BME280;16219;42.864;23.360;2023-06-14T12:18:35;95480.75;;;28.08;61.82
29169;BME280;16219;42.864;23.360;2023-06-14T12:21:04;95480.56;;;27.86;68.95
29169;BME280;16219;42.864;23.360;2023-06-14T12:23:43;95475.94;;;27.87;65.70
29169;BME280;16219;42.864;23.360;2023-06-14T12:26:13;95472.34;;;27.90;59.79
29169;BME280;16219;42.864;23.360;2023-06-14T12:28:40;95460.72;;;27.77;58.16
29169;BME280;16219;42.864;23.360;2023-06-14T12:31:08;95465.78;;;28.17;61.36
29169;BME280;16219;42.864;23.360;2023-06-14T12:33:35;95464.16;;;28.32;59.84
29169;BME280;16219;42.864;23.360;2023-06-14T12:36:04;95452.09;;;28.20;59.64
29169;BME280;16219;42.864;23.360;2023-06-14T12:38:32;95459.16;;;28.30;66.90
29169;BME280;16219;42.864;23.360;2023-06-14T12:41:00;95466.34;;;28.37;62.93
29169;BME280;16219;42.864;23.360;2023-06-14T12:43:27;95462.97;;;28.71;76.55
29169;BME280;16219;42.864;23.360;2023-06-14T12:45:55;95452.72;;;28.88;58.56
29169;BME280;16219;42.864;23.360;2023-06-14T12:48:22;95453.41;;;28.67;55.85
29169;BME280;16219;42.864;23.360;2023-06-14T12:50:49;95450.28;;;28.17;61.91
29169;BME280;16219;42.864;23.360;2023-06-14T12:53:16;95449.41;;;27.65;70.77
29169;BME280;16219;42.864;23.360;2023-06-14T12:55:44;95451.84;;;27.02;78.43